Aérodrome :
LOGIN :

S'inscrire | Disclaimer

   EN    FR    IT 

 










Légende :    VFR   VFR Marginal   IFR   IFR Intensif   IFR Très Intensif
Visi : 
Plafond : 
>= 8 km
>= 3000ft
5 à 8 km
1000 à 3000 ft
1500m à 5 km
500 à 1000 ft
800 à 1500m
200 à 500 ft
< 800m
< 200 ft
Symboles :   Orages  Brouillard  Fortes neiges  Fortes précipitations  Vent > 20 kt
SIGMETs :   Divers  Orages  Givrage  Turbulence  Onde Orograph.  Cendres Volcan.






- Altitude de l'aérodrome : 56 ft
- Code IATA : BZR


LFMU - Beziers / Vias

DERNIER METAR :
  • 160430Z AUTO 34002KT 9999 -RA NSC 15/14 Q1009 TEMPO 22010KT RA BKN008 BKN020 BKN040

METARs EXPIRÉS :
  • 160400Z AUTO 04002KT 9999 FEW042/// BKN072/// OVC082/// ///TCU 15/14 Q1009 TEMPO 22010KT RA BKN008 BKN020 BKN040
  • 160330Z AUTO 00000KT CAVOK 15/14 Q1009 TEMPO 22010KT RA BKN008 BKN020 BKN040
  • 160300Z AUTO VRB02KT 7000 -RA ///TCU 15/14 Q1010 TEMPO RA BKN008 BKN020 BKN040
  • 160230Z AUTO 36002KT CAVOK 15/14 Q1010
  • 160200Z AUTO 36003KT 9000 NSC 15/14 Q1010

TAF TAF LFMU
Valide du 16 à 03h jusqu'au 17 à 03h UTC


160200Z 1603/1703 21005KT 9999 BKN020 BKN080
TEMPO 1603/1615 22010KT 5000 RA BKN008 BKN020 BKN040
BECMG 1615/1617 33012KT SCT040 BKN080
TEMPO 1615/1703 33015G25KT
BECMG 1618/1621 CAVOK
ATIS : +33 4 67 90 88 88



MET'MAP, la Météo Aéronautique d'un coup d'oeil ! - Copyright ORBIFLY Décembre 2007 - Disclaimer

ORBIFLY MET'MAP TEAM :

Programmation & Développement : Alexandra Zaïnal
Sur une idée originale de : Baudouin d'Aumeries
Assistance à la programmation : Marc-Olivier Méhu
Soutien technique & logistique : Manuel Goepfert

Contact : metmap@orbifly.com




SOURCES & CREDITS :

   NOAA